sensor_id;sensor_type;location;lat;lon;timestamp;P1;durP1;ratioP1;P2;durP2;ratioP2
11699;SDS011;5906;51.660;6.674;2022-09-16T00:00:46;3.93;;;1.80;;
11699;SDS011;5906;51.660;6.674;2022-09-16T00:03:12;7.30;;;1.93;;
11699;SDS011;5906;51.660;6.674;2022-09-16T00:05:41;9.53;;;2.20;;
11699;SDS011;5906;51.660;6.674;2022-09-16T00:08:10;3.53;;;1.80;;
11699;SDS011;5906;51.660;6.674;2022-09-16T00:10:37;4.37;;;1.77;;
11699;SDS011;5906;51.660;6.674;2022-09-16T00:13:03;5.07;;;1.60;;
11699;SDS011;5906;51.660;6.674;2022-09-16T00:15:30;1.57;;;1.40;;
11699;SDS011;5906;51.660;6.674;2022-09-16T00:17:57;4.07;;;1.73;;
11699;SDS011;5906;51.660;6.674;2022-09-16T00:20:24;1.80;;;1.47;;
11699;SDS011;5906;51.660;6.674;2022-09-16T00:22:52;4.83;;;1.60;;
11699;SDS011;5906;51.660;6.674;2022-09-16T00:25:19;5.60;;;1.50;;
11699;SDS011;5906;51.660;6.674;2022-09-16T00:27:46;2.03;;;1.80;;
11699;SDS011;5906;51.660;6.674;2022-09-16T00:30:14;4.60;;;1.90;;
11699;SDS011;5906;51.660;6.674;2022-09-16T00:32:41;6.50;;;1.90;;
11699;SDS011;5906;51.660;6.674;2022-09-16T00:35:08;3.13;;;1.43;;
11699;SDS011;5906;51.660;6.674;2022-09-16T00:37:35;2.40;;;1.80;;
11699;SDS011;5906;51.660;6.674;2022-09-16T00:40:02;4.37;;;1.77;;
11699;SDS011;5906;51.660;6.674;2022-09-16T00:42:29;3.53;;;1.67;;
11699;SDS011;5906;51.660;6.674;2022-09-16T00:47:33;3.23;;;1.60;;
11699;SDS011;5906;51.660;6.674;2022-09-16T00:50:08;3.70;;;2.00;;
11699;SDS011;5906;51.660;6.674;2022-09-16T00:52:38;5.40;;;1.97;;
11699;SDS011;5906;51.660;6.674;2022-09-16T00:55:08;2.40;;;1.80;;
11699;SDS011;5906;51.660;6.674;2022-09-16T00:57:38;4.20;;;1.70;;
11699;SDS011;5906;51.660;6.674;2022-09-16T01:00:06;2.90;;;1.73;;
11699;SDS011;5906;51.660;6.674;2022-09-16T01:02:37;11.10;;;1.90;;
11699;SDS011;5906;51.660;6.674;2022-09-16T01:05:06;4.03;;;1.80;;
11699;SDS011;5906;51.660;6.674;2022-09-16T01:07:43;4.03;;;2.00;;
11699;SDS011;5906;51.660;6.674;2022-09-16T01:10:12;3.60;;;1.80;;
11699;SDS011;5906;51.660;6.674;2022-09-16T01:12:43;5.80;;;2.30;;
11699;SDS011;5906;51.660;6.674;2022-09-16T01:15:12;6.50;;;2.17;;
11699;SDS011;5906;51.660;6.674;2022-09-16T01:20:26;4.13;;;2.10;;
11699;SDS011;5906;51.660;6.674;2022-09-16T01:32:11;9.13;;;2.27;;
11699;SDS011;5906;51.660;6.674;2022-09-16T01:40:07;7.03;;;2.30;;
11699;SDS011;5906;51.660;6.674;2022-09-16T01:48:25;3.30;;;2.10;;
11699;SDS011;5906;51.660;6.674;2022-09-16T01:56:29;3.67;;;2.17;;
11699;SDS011;5906;51.660;6.674;2022-09-16T01:59:08;5.33;;;2.00;;
11699;SDS011;5906;51.660;6.674;2022-09-16T02:01:43;1.93;;;1.73;;
11699;SDS011;5906;51.660;6.674;2022-09-16T02:04:16;2.70;;;2.20;;
11699;SDS011;5906;51.660;6.674;2022-09-16T02:06:48;2.90;;;2.00;;
11699;SDS011;5906;51.660;6.674;2022-09-16T02:09:18;3.50;;;1.70;;
11699;SDS011;5906;51.660;6.674;2022-09-16T02:11:50;5.73;;;2.10;;
11699;SDS011;5906;51.660;6.674;2022-09-16T02:14:20;6.83;;;2.63;;
11699;SDS011;5906;51.660;6.674;2022-09-16T02:16:55;3.40;;;2.03;;
11699;SDS011;5906;51.660;6.674;2022-09-16T02:22:17;2.00;;;1.70;;
11699;SDS011;5906;51.660;6.674;2022-09-16T02:24:48;4.40;;;1.63;;
11699;SDS011;5906;51.660;6.674;2022-09-16T02:27:18;5.30;;;1.80;;
11699;SDS011;5906;51.660;6.674;2022-09-16T02:29:49;2.30;;;1.87;;
11699;SDS011;5906;51.660;6.674;2022-09-16T02:32:27;3.90;;;1.87;;
11699;SDS011;5906;51.660;6.674;2022-09-16T02:34:58;5.60;;;1.90;;
11699;SDS011;5906;51.660;6.674;2022-09-16T02:37:31;6.10;;;2.30;;
11699;SDS011;5906;51.660;6.674;2022-09-16T02:40:04;7.20;;;2.10;;
11699;SDS011;5906;51.660;6.674;2022-09-16T02:42:36;5.60;;;2.10;;
11699;SDS011;5906;51.660;6.674;2022-09-16T02:45:03;3.93;;;2.00;;
11699;SDS011;5906;51.660;6.674;2022-09-16T02:47:42;5.60;;;2.07;;
11699;SDS011;5906;51.660;6.674;2022-09-16T02:50:26;9.30;;;2.20;;
11699;SDS011;5906;51.660;6.674;2022-09-16T02:55:37;4.23;;;1.90;;
11699;SDS011;5906;51.660;6.674;2022-09-16T02:58:19;4.67;;;2.63;;
11699;SDS011;5906;51.660;6.674;2022-09-16T03:00:47;6.20;;;1.80;;
11699;SDS011;5906;51.660;6.674;2022-09-16T03:03:17;7.30;;;2.40;;
11699;SDS011;5906;51.660;6.674;2022-09-16T03:06:03;2.57;;;1.90;;
11699;SDS011;5906;51.660;6.674;2022-09-16T03:08:32;2.53;;;1.87;;
11699;SDS011;5906;51.660;6.674;2022-09-16T03:11:02;4.73;;;2.27;;
11699;SDS011;5906;51.660;6.674;2022-09-16T03:13:43;3.67;;;2.40;;
11699;SDS011;5906;51.660;6.674;2022-09-16T03:21:54;2.77;;;2.10;;
11699;SDS011;5906;51.660;6.674;2022-09-16T03:27:10;5.10;;;2.20;;
11699;SDS011;5906;51.660;6.674;2022-09-16T03:29:49;10.77;;;2.07;;
11699;SDS011;5906;51.660;6.674;2022-09-16T03:32:22;3.17;;;2.10;;
11699;SDS011;5906;51.660;6.674;2022-09-16T03:37:35;6.73;;;2.47;;
11699;SDS011;5906;51.660;6.674;2022-09-16T03:40:07;3.60;;;1.90;;
11699;SDS011;5906;51.660;6.674;2022-09-16T03:42:38;2.90;;;2.13;;
11699;SDS011;5906;51.660;6.674;2022-09-16T03:45:08;3.13;;;1.87;;
11699;SDS011;5906;51.660;6.674;2022-09-16T03:47:39;3.37;;;1.97;;
11699;SDS011;5906;51.660;6.674;2022-09-16T03:50:06;7.07;;;2.03;;
11699;SDS011;5906;51.660;6.674;2022-09-16T03:52:33;2.90;;;2.07;;
11699;SDS011;5906;51.660;6.674;2022-09-16T03:55:00;3.40;;;2.00;;
11699;SDS011;5906;51.660;6.674;2022-09-16T03:57:26;2.93;;;2.07;;
11699;SDS011;5906;51.660;6.674;2022-09-16T03:59:55;8.07;;;2.23;;
11699;SDS011;5906;51.660;6.674;2022-09-16T04:02:22;2.57;;;1.93;;
11699;SDS011;5906;51.660;6.674;2022-09-16T04:04:48;3.50;;;1.83;;
11699;SDS011;5906;51.660;6.674;2022-09-16T04:07:15;4.97;;;1.87;;
11699;SDS011;5906;51.660;6.674;2022-09-16T04:09:42;5.80;;;2.20;;
11699;SDS011;5906;51.660;6.674;2022-09-16T04:12:09;12.53;;;2.53;;
11699;SDS011;5906;51.660;6.674;2022-09-16T04:14:35;4.47;;;2.63;;
11699;SDS011;5906;51.660;6.674;2022-09-16T04:17:02;2.67;;;1.90;;
11699;SDS011;5906;51.660;6.674;2022-09-16T04:19:29;4.07;;;2.20;;
11699;SDS011;5906;51.660;6.674;2022-09-16T04:21:56;8.10;;;2.40;;
11699;SDS011;5906;51.660;6.674;2022-09-16T04:24:23;5.87;;;2.20;;
11699;SDS011;5906;51.660;6.674;2022-09-16T04:26:50;4.50;;;2.30;;
11699;SDS011;5906;51.660;6.674;2022-09-16T04:29:16;3.93;;;1.97;;
11699;SDS011;5906;51.660;6.674;2022-09-16T04:31:43;7.10;;;2.53;;
11699;SDS011;5906;51.660;6.674;2022-09-16T04:34:10;2.97;;;2.20;;
11699;SDS011;5906;51.660;6.674;2022-09-16T04:36:37;2.93;;;1.77;;
11699;SDS011;5906;51.660;6.674;2022-09-16T04:39:04;3.20;;;2.30;;
11699;SDS011;5906;51.660;6.674;2022-09-16T04:41:32;5.50;;;2.30;;
11699;SDS011;5906;51.660;6.674;2022-09-16T04:43:59;2.23;;;2.00;;
11699;SDS011;5906;51.660;6.674;2022-09-16T04:46:26;4.43;;;2.37;;
11699;SDS011;5906;51.660;6.674;2022-09-16T04:48:54;7.43;;;2.37;;
11699;SDS011;5906;51.660;6.674;2022-09-16T04:51:22;3.27;;;1.90;;
11699;SDS011;5906;51.660;6.674;2022-09-16T04:53:50;2.67;;;2.03;;
11699;SDS011;5906;51.660;6.674;2022-09-16T04:56:18;2.60;;;1.93;;
11699;SDS011;5906;51.660;6.674;2022-09-16T04:58:47;6.97;;;2.63;;
11699;SDS011;5906;51.660;6.674;2022-09-16T05:01:15;3.63;;;2.20;;
11699;SDS011;5906;51.660;6.674;2022-09-16T05:03:45;4.30;;;2.40;;
11699;SDS011;5906;51.660;6.674;2022-09-16T05:06:14;3.07;;;2.23;;
11699;SDS011;5906;51.660;6.674;2022-09-16T05:08:46;5.07;;;2.33;;
11699;SDS011;5906;51.660;6.674;2022-09-16T05:11:18;7.83;;;2.80;;
11699;SDS011;5906;51.660;6.674;2022-09-16T05:13:50;6.70;;;2.00;;
11699;SDS011;5906;51.660;6.674;2022-09-16T05:16:18;2.40;;;1.97;;
11699;SDS011;5906;51.660;6.674;2022-09-16T05:18:46;6.70;;;2.27;;
11699;SDS011;5906;51.660;6.674;2022-09-16T05:21:15;6.17;;;2.50;;
11699;SDS011;5906;51.660;6.674;2022-09-16T05:23:46;3.63;;;2.20;;
11699;SDS011;5906;51.660;6.674;2022-09-16T05:26:17;3.80;;;2.37;;
11699;SDS011;5906;51.660;6.674;2022-09-16T05:28:46;7.23;;;2.63;;
11699;SDS011;5906;51.660;6.674;2022-09-16T05:31:21;3.23;;;2.63;;
11699;SDS011;5906;51.660;6.674;2022-09-16T05:33:55;6.37;;;3.17;;
11699;SDS011;5906;51.660;6.674;2022-09-16T05:36:31;2.73;;;2.10;;
11699;SDS011;5906;51.660;6.674;2022-09-16T05:39:00;10.43;;;3.63;;
11699;SDS011;5906;51.660;6.674;2022-09-16T05:41:47;3.80;;;2.10;;
11699;SDS011;5906;51.660;6.674;2022-09-16T05:44:14;8.33;;;2.97;;
11699;SDS011;5906;51.660;6.674;2022-09-16T05:46:41;5.30;;;2.70;;
11699;SDS011;5906;51.660;6.674;2022-09-16T05:49:10;6.10;;;2.50;;
11699;SDS011;5906;51.660;6.674;2022-09-16T05:51:37;4.53;;;2.70;;
11699;SDS011;5906;51.660;6.674;2022-09-16T05:54:06;3.93;;;2.83;;
11699;SDS011;5906;51.660;6.674;2022-09-16T05:56:33;5.33;;;2.60;;
11699;SDS011;5906;51.660;6.674;2022-09-16T05:59:00;8.30;;;2.90;;
11699;SDS011;5906;51.660;6.674;2022-09-16T06:01:28;4.93;;;2.80;;
11699;SDS011;5906;51.660;6.674;2022-09-16T06:03:58;9.63;;;2.97;;
11699;SDS011;5906;51.660;6.674;2022-09-16T06:06:30;6.93;;;3.10;;
11699;SDS011;5906;51.660;6.674;2022-09-16T06:09:03;3.70;;;2.73;;
11699;SDS011;5906;51.660;6.674;2022-09-16T06:11:38;7.70;;;3.13;;
11699;SDS011;5906;51.660;6.674;2022-09-16T06:14:07;3.67;;;2.90;;
11699;SDS011;5906;51.660;6.674;2022-09-16T06:16:34;5.87;;;2.60;;
11699;SDS011;5906;51.660;6.674;2022-09-16T06:19:03;8.23;;;2.70;;
11699;SDS011;5906;51.660;6.674;2022-09-16T06:21:36;6.60;;;3.00;;
11699;SDS011;5906;51.660;6.674;2022-09-16T06:24:03;4.27;;;2.67;;
11699;SDS011;5906;51.660;6.674;2022-09-16T06:26:35;9.20;;;3.13;;
11699;SDS011;5906;51.660;6.674;2022-09-16T06:29:03;4.90;;;3.27;;
11699;SDS011;5906;51.660;6.674;2022-09-16T06:31:31;8.93;;;2.73;;
11699;SDS011;5906;51.660;6.674;2022-09-16T06:33:58;13.20;;;2.90;;
11699;SDS011;5906;51.660;6.674;2022-09-16T06:36:26;10.40;;;2.50;;
11699;SDS011;5906;51.660;6.674;2022-09-16T06:38:54;5.33;;;2.50;;
11699;SDS011;5906;51.660;6.674;2022-09-16T06:41:21;11.13;;;3.10;;
11699;SDS011;5906;51.660;6.674;2022-09-16T06:43:49;6.03;;;2.43;;
11699;SDS011;5906;51.660;6.674;2022-09-16T06:46:21;3.83;;;2.30;;
11699;SDS011;5906;51.660;6.674;2022-09-16T06:48:53;8.27;;;2.10;;
11699;SDS011;5906;51.660;6.674;2022-09-16T06:51:30;4.87;;;2.20;;
11699;SDS011;5906;51.660;6.674;2022-09-16T06:54:03;3.30;;;2.27;;
11699;SDS011;5906;51.660;6.674;2022-09-16T06:56:31;11.63;;;2.50;;
11699;SDS011;5906;51.660;6.674;2022-09-16T06:59:03;3.60;;;2.17;;
11699;SDS011;5906;51.660;6.674;2022-09-16T07:01:30;2.87;;;1.70;;
11699;SDS011;5906;51.660;6.674;2022-09-16T07:03:57;2.83;;;2.20;;
11699;SDS011;5906;51.660;6.674;2022-09-16T07:06:28;4.43;;;1.97;;
11699;SDS011;5906;51.660;6.674;2022-09-16T07:09:15;2.17;;;1.80;;
11699;SDS011;5906;51.660;6.674;2022-09-16T07:11:42;4.50;;;2.10;;
11699;SDS011;5906;51.660;6.674;2022-09-16T07:14:09;4.87;;;2.33;;
11699;SDS011;5906;51.660;6.674;2022-09-16T07:16:36;2.00;;;1.80;;
11699;SDS011;5906;51.660;6.674;2022-09-16T07:19:03;5.93;;;2.43;;
11699;SDS011;5906;51.660;6.674;2022-09-16T07:21:31;5.63;;;2.47;;
11699;SDS011;5906;51.660;6.674;2022-09-16T07:23:58;5.43;;;2.10;;
11699;SDS011;5906;51.660;6.674;2022-09-16T07:26:27;4.30;;;2.20;;
11699;SDS011;5906;51.660;6.674;2022-09-16T07:28:57;4.97;;;2.17;;
11699;SDS011;5906;51.660;6.674;2022-09-16T07:31:27;4.07;;;1.77;;
11699;SDS011;5906;51.660;6.674;2022-09-16T07:33:56;2.60;;;2.27;;
11699;SDS011;5906;51.660;6.674;2022-09-16T07:36:37;3.17;;;2.00;;
11699;SDS011;5906;51.660;6.674;2022-09-16T07:39:06;6.77;;;2.37;;
11699;SDS011;5906;51.660;6.674;2022-09-16T07:41:34;4.20;;;2.30;;
11699;SDS011;5906;51.660;6.674;2022-09-16T07:44:04;2.83;;;1.70;;
11699;SDS011;5906;51.660;6.674;2022-09-16T07:46:33;2.07;;;1.87;;
11699;SDS011;5906;51.660;6.674;2022-09-16T07:49:01;3.03;;;2.00;;
11699;SDS011;5906;51.660;6.674;2022-09-16T07:51:30;3.33;;;2.20;;
11699;SDS011;5906;51.660;6.674;2022-09-16T07:54:02;6.90;;;1.90;;
11699;SDS011;5906;51.660;6.674;2022-09-16T07:56:32;11.03;;;2.20;;
11699;SDS011;5906;51.660;6.674;2022-09-16T07:59:00;6.87;;;2.20;;
11699;SDS011;5906;51.660;6.674;2022-09-16T08:01:29;3.27;;;1.90;;
11699;SDS011;5906;51.660;6.674;2022-09-16T08:03:56;7.27;;;1.80;;
11699;SDS011;5906;51.660;6.674;2022-09-16T08:06:25;11.17;;;1.90;;
11699;SDS011;5906;51.660;6.674;2022-09-16T08:08:55;4.80;;;1.70;;
11699;SDS011;5906;51.660;6.674;2022-09-16T08:11:35;3.47;;;1.90;;
11699;SDS011;5906;51.660;6.674;2022-09-16T08:14:02;3.77;;;1.30;;
11699;SDS011;5906;51.660;6.674;2022-09-16T08:16:29;2.83;;;1.40;;
11699;SDS011;5906;51.660;6.674;2022-09-16T08:18:56;6.00;;;2.00;;
11699;SDS011;5906;51.660;6.674;2022-09-16T08:21:25;2.03;;;1.33;;
11699;SDS011;5906;51.660;6.674;2022-09-16T08:23:53;3.20;;;1.50;;
11699;SDS011;5906;51.660;6.674;2022-09-16T08:26:22;3.67;;;1.50;;
11699;SDS011;5906;51.660;6.674;2022-09-16T08:28:50;5.83;;;1.40;;
11699;SDS011;5906;51.660;6.674;2022-09-16T08:31:35;1.70;;;1.23;;
11699;SDS011;5906;51.660;6.674;2022-09-16T08:34:03;3.47;;;1.60;;
11699;SDS011;5906;51.660;6.674;2022-09-16T08:36:30;3.57;;;1.50;;
11699;SDS011;5906;51.660;6.674;2022-09-16T08:39:00;7.83;;;1.90;;
11699;SDS011;5906;51.660;6.674;2022-09-16T08:44:43;4.80;;;1.73;;
11699;SDS011;5906;51.660;6.674;2022-09-16T08:50:03;2.70;;;1.50;;
11699;SDS011;5906;51.660;6.674;2022-09-16T08:52:36;4.03;;;1.20;;
11699;SDS011;5906;51.660;6.674;2022-09-16T08:55:11;3.30;;;1.37;;
11699;SDS011;5906;51.660;6.674;2022-09-16T08:57:56;2.00;;;1.20;;
11699;SDS011;5906;51.660;6.674;2022-09-16T09:00:24;5.63;;;1.50;;
11699;SDS011;5906;51.660;6.674;2022-09-16T09:05:56;2.93;;;1.30;;
11699;SDS011;5906;51.660;6.674;2022-09-16T09:14:08;2.43;;;1.33;;
11699;SDS011;5906;51.660;6.674;2022-09-16T09:17:02;2.10;;;1.27;;
11699;SDS011;5906;51.660;6.674;2022-09-16T09:25:44;8.70;;;2.07;;
11699;SDS011;5906;51.660;6.674;2022-09-16T09:31:04;7.60;;;1.97;;
11699;SDS011;5906;51.660;6.674;2022-09-16T09:33:56;1.93;;;1.47;;
11699;SDS011;5906;51.660;6.674;2022-09-16T09:39:40;5.33;;;1.97;;
11699;SDS011;5906;51.660;6.674;2022-09-16T09:50:20;1.97;;;1.23;;
11699;SDS011;5906;51.660;6.674;2022-09-16T09:53:01;1.73;;;1.20;;
11699;SDS011;5906;51.660;6.674;2022-09-16T09:55:39;2.67;;;1.67;;
11699;SDS011;5906;51.660;6.674;2022-09-16T10:00:57;12.23;;;1.60;;
11699;SDS011;5906;51.660;6.674;2022-09-16T10:03:24;3.93;;;1.50;;
11699;SDS011;5906;51.660;6.674;2022-09-16T10:05:52;6.57;;;1.13;;
11699;SDS011;5906;51.660;6.674;2022-09-16T10:10:49;3.10;;;1.30;;
11699;SDS011;5906;51.660;6.674;2022-09-16T10:13:18;3.60;;;1.40;;
11699;SDS011;5906;51.660;6.674;2022-09-16T10:15:47;2.93;;;1.33;;
11699;SDS011;5906;51.660;6.674;2022-09-16T10:18:22;4.47;;;1.50;;
11699;SDS011;5906;51.660;6.674;2022-09-16T10:20:56;2.50;;;1.30;;
11699;SDS011;5906;51.660;6.674;2022-09-16T10:23:28;4.97;;;1.73;;
11699;SDS011;5906;51.660;6.674;2022-09-16T10:26:29;7.90;;;1.50;;
11699;SDS011;5906;51.660;6.674;2022-09-16T10:29:11;3.00;;;1.30;;
11699;SDS011;5906;51.660;6.674;2022-09-16T10:31:41;4.33;;;1.43;;
11699;SDS011;5906;51.660;6.674;2022-09-16T10:34:14;6.77;;;1.37;;
11699;SDS011;5906;51.660;6.674;2022-09-16T10:36:44;3.50;;;1.57;;
11699;SDS011;5906;51.660;6.674;2022-09-16T10:39:23;12.20;;;1.47;;
11699;SDS011;5906;51.660;6.674;2022-09-16T10:41:52;5.03;;;1.43;;
11699;SDS011;5906;51.660;6.674;2022-09-16T10:44:26;3.83;;;1.30;;
11699;SDS011;5906;51.660;6.674;2022-09-16T10:49:36;4.70;;;1.50;;
11699;SDS011;5906;51.660;6.674;2022-09-16T10:52:13;3.97;;;1.53;;
11699;SDS011;5906;51.660;6.674;2022-09-16T10:54:42;2.93;;;1.80;;
11699;SDS011;5906;51.660;6.674;2022-09-16T10:57:20;3.47;;;1.30;;
11699;SDS011;5906;51.660;6.674;2022-09-16T11:05:25;2.83;;;1.30;;
11699;SDS011;5906;51.660;6.674;2022-09-16T11:10:46;9.17;;;1.43;;
11699;SDS011;5906;51.660;6.674;2022-09-16T11:21:09;2.57;;;1.20;;
11699;SDS011;5906;51.660;6.674;2022-09-16T11:30:14;4.13;;;1.20;;
11699;SDS011;5906;51.660;6.674;2022-09-16T11:32:48;1.60;;;1.10;;
11699;SDS011;5906;51.660;6.674;2022-09-16T11:38:04;2.80;;;1.10;;
11699;SDS011;5906;51.660;6.674;2022-09-16T11:40:45;3.43;;;1.40;;
11699;SDS011;5906;51.660;6.674;2022-09-16T11:43:50;2.57;;;1.30;;
11699;SDS011;5906;51.660;6.674;2022-09-16T11:57:51;9.20;;;1.80;;
11699;SDS011;5906;51.660;6.674;2022-09-16T12:00:21;3.17;;;1.37;;
11699;SDS011;5906;51.660;6.674;2022-09-16T12:02:51;4.00;;;1.57;;
11699;SDS011;5906;51.660;6.674;2022-09-16T12:05:32;3.00;;;1.40;;
11699;SDS011;5906;51.660;6.674;2022-09-16T12:11:02;1.87;;;1.37;;
11699;SDS011;5906;51.660;6.674;2022-09-16T12:13:39;2.67;;;1.10;;
11699;SDS011;5906;51.660;6.674;2022-09-16T12:16:11;4.40;;;1.17;;
11699;SDS011;5906;51.660;6.674;2022-09-16T12:18:43;2.13;;;1.27;;
11699;SDS011;5906;51.660;6.674;2022-09-16T12:21:23;2.63;;;1.23;;
11699;SDS011;5906;51.660;6.674;2022-09-16T12:23:58;2.97;;;1.50;;
11699;SDS011;5906;51.660;6.674;2022-09-16T12:26:31;2.17;;;1.10;;
11699;SDS011;5906;51.660;6.674;2022-09-16T12:29:01;1.40;;;1.30;;
11699;SDS011;5906;51.660;6.674;2022-09-16T12:32:02;6.33;;;1.60;;
11699;SDS011;5906;51.660;6.674;2022-09-16T12:34:35;2.93;;;1.37;;
11699;SDS011;5906;51.660;6.674;2022-09-16T12:40:21;2.17;;;1.30;;
11699;SDS011;5906;51.660;6.674;2022-09-16T12:43:00;1.20;;;1.10;;
11699;SDS011;5906;51.660;6.674;2022-09-16T12:51:00;1.70;;;1.17;;
11699;SDS011;5906;51.660;6.674;2022-09-16T13:01:57;2.07;;;1.30;;
11699;SDS011;5906;51.660;6.674;2022-09-16T13:04:33;3.03;;;1.17;;
11699;SDS011;5906;51.660;6.674;2022-09-16T13:07:05;2.23;;;1.50;;
11699;SDS011;5906;51.660;6.674;2022-09-16T13:09:36;2.37;;;1.20;;
11699;SDS011;5906;51.660;6.674;2022-09-16T13:12:05;2.17;;;1.20;;
11699;SDS011;5906;51.660;6.674;2022-09-16T13:15:06;1.83;;;1.20;;
11699;SDS011;5906;51.660;6.674;2022-09-16T13:17:35;1.70;;;1.40;;
11699;SDS011;5906;51.660;6.674;2022-09-16T13:23:01;3.50;;;1.20;;
11699;SDS011;5906;51.660;6.674;2022-09-16T13:26:14;2.53;;;1.30;;
11699;SDS011;5906;51.660;6.674;2022-09-16T13:38:45;3.83;;;1.30;;
11699;SDS011;5906;51.660;6.674;2022-09-16T13:41:28;1.80;;;1.37;;
11699;SDS011;5906;51.660;6.674;2022-09-16T13:43:55;4.37;;;2.20;;
11699;SDS011;5906;51.660;6.674;2022-09-16T13:46:35;1.97;;;1.20;;
11699;SDS011;5906;51.660;6.674;2022-09-16T13:51:40;3.90;;;1.80;;
11699;SDS011;5906;51.660;6.674;2022-09-16T13:54:20;1.57;;;1.27;;
11699;SDS011;5906;51.660;6.674;2022-09-16T13:56:55;2.70;;;1.60;;
11699;SDS011;5906;51.660;6.674;2022-09-16T14:07:50;5.57;;;1.40;;
11699;SDS011;5906;51.660;6.674;2022-09-16T14:10:39;4.13;;;1.27;;
11699;SDS011;5906;51.660;6.674;2022-09-16T14:13:20;2.33;;;1.40;;
11699;SDS011;5906;51.660;6.674;2022-09-16T14:15:53;3.73;;;1.50;;
11699;SDS011;5906;51.660;6.674;2022-09-16T14:18:25;3.90;;;1.40;;
11699;SDS011;5906;51.660;6.674;2022-09-16T14:21:02;6.53;;;1.33;;
11699;SDS011;5906;51.660;6.674;2022-09-16T14:23:31;5.40;;;1.53;;
11699;SDS011;5906;51.660;6.674;2022-09-16T14:26:08;7.90;;;1.77;;
11699;SDS011;5906;51.660;6.674;2022-09-16T14:28:43;5.17;;;1.13;;
11699;SDS011;5906;51.660;6.674;2022-09-16T14:31:20;4.13;;;1.53;;
11699;SDS011;5906;51.660;6.674;2022-09-16T14:33:52;4.77;;;1.40;;
11699;SDS011;5906;51.660;6.674;2022-09-16T14:36:26;2.10;;;1.10;;
11699;SDS011;5906;51.660;6.674;2022-09-16T14:38:59;2.53;;;1.50;;
11699;SDS011;5906;51.660;6.674;2022-09-16T14:41:38;9.70;;;2.17;;
11699;SDS011;5906;51.660;6.674;2022-09-16T14:44:19;3.63;;;1.50;;
11699;SDS011;5906;51.660;6.674;2022-09-16T14:47:03;5.80;;;1.60;;
11699;SDS011;5906;51.660;6.674;2022-09-16T14:50:30;1.73;;;1.30;;
11699;SDS011;5906;51.660;6.674;2022-09-16T14:56:02;8.40;;;2.00;;
11699;SDS011;5906;51.660;6.674;2022-09-16T14:58:30;6.23;;;1.80;;
11699;SDS011;5906;51.660;6.674;2022-09-16T15:01:00;8.23;;;1.57;;
11699;SDS011;5906;51.660;6.674;2022-09-16T15:06:21;4.40;;;1.47;;
11699;SDS011;5906;51.660;6.674;2022-09-16T15:08:58;9.07;;;1.90;;
11699;SDS011;5906;51.660;6.674;2022-09-16T15:11:30;4.50;;;1.50;;
11699;SDS011;5906;51.660;6.674;2022-09-16T15:14:16;7.57;;;1.70;;
11699;SDS011;5906;51.660;6.674;2022-09-16T15:16:47;1.87;;;1.20;;
11699;SDS011;5906;51.660;6.674;2022-09-16T15:19:19;3.53;;;1.30;;
11699;SDS011;5906;51.660;6.674;2022-09-16T15:21:49;4.50;;;1.43;;
11699;SDS011;5906;51.660;6.674;2022-09-16T15:24:21;2.60;;;1.20;;
11699;SDS011;5906;51.660;6.674;2022-09-16T15:26:54;8.10;;;1.60;;
11699;SDS011;5906;51.660;6.674;2022-09-16T15:31:47;8.87;;;1.80;;
11699;SDS011;5906;51.660;6.674;2022-09-16T15:36:46;4.20;;;1.47;;
11699;SDS011;5906;51.660;6.674;2022-09-16T15:39:21;2.17;;;1.40;;
11699;SDS011;5906;51.660;6.674;2022-09-16T15:44:51;1.63;;;1.20;;
11699;SDS011;5906;51.660;6.674;2022-09-16T15:47:23;4.27;;;1.50;;
11699;SDS011;5906;51.660;6.674;2022-09-16T15:50:07;4.83;;;1.20;;
11699;SDS011;5906;51.660;6.674;2022-09-16T15:58:05;4.47;;;1.63;;
11699;SDS011;5906;51.660;6.674;2022-09-16T16:00:56;7.60;;;1.70;;
11699;SDS011;5906;51.660;6.674;2022-09-16T16:03:27;5.87;;;2.30;;
11699;SDS011;5906;51.660;6.674;2022-09-16T16:05:58;3.23;;;1.50;;
11699;SDS011;5906;51.660;6.674;2022-09-16T16:08:38;5.20;;;1.50;;
11699;SDS011;5906;51.660;6.674;2022-09-16T16:11:10;3.67;;;1.53;;
11699;SDS011;5906;51.660;6.674;2022-09-16T16:13:39;1.90;;;1.23;;
11699;SDS011;5906;51.660;6.674;2022-09-16T16:16:07;9.77;;;1.40;;
11699;SDS011;5906;51.660;6.674;2022-09-16T16:18:34;8.73;;;1.37;;
11699;SDS011;5906;51.660;6.674;2022-09-16T16:21:10;4.07;;;1.90;;
11699;SDS011;5906;51.660;6.674;2022-09-16T16:23:38;5.90;;;1.70;;
11699;SDS011;5906;51.660;6.674;2022-09-16T16:26:06;1.40;;;1.30;;
11699;SDS011;5906;51.660;6.674;2022-09-16T16:28:34;3.40;;;1.50;;
11699;SDS011;5906;51.660;6.674;2022-09-16T16:31:08;3.30;;;1.47;;
11699;SDS011;5906;51.660;6.674;2022-09-16T16:33:39;2.90;;;1.10;;
11699;SDS011;5906;51.660;6.674;2022-09-16T16:36:10;5.60;;;1.60;;
11699;SDS011;5906;51.660;6.674;2022-09-16T16:38:39;4.33;;;1.60;;
11699;SDS011;5906;51.660;6.674;2022-09-16T16:41:06;8.27;;;1.70;;
11699;SDS011;5906;51.660;6.674;2022-09-16T16:43:34;1.80;;;1.30;;
11699;SDS011;5906;51.660;6.674;2022-09-16T16:46:01;2.60;;;1.40;;
11699;SDS011;5906;51.660;6.674;2022-09-16T16:48:28;5.00;;;1.63;;
11699;SDS011;5906;51.660;6.674;2022-09-16T16:53:28;2.80;;;1.70;;
11699;SDS011;5906;51.660;6.674;2022-09-16T16:56:02;9.73;;;1.73;;
11699;SDS011;5906;51.660;6.674;2022-09-16T16:58:40;3.70;;;1.53;;
11699;SDS011;5906;51.660;6.674;2022-09-16T17:01:08;3.97;;;2.13;;
11699;SDS011;5906;51.660;6.674;2022-09-16T17:03:38;5.27;;;1.70;;
11699;SDS011;5906;51.660;6.674;2022-09-16T17:06:06;3.23;;;1.77;;
11699;SDS011;5906;51.660;6.674;2022-09-16T17:08:33;5.83;;;1.87;;
11699;SDS011;5906;51.660;6.674;2022-09-16T17:11:07;1.93;;;1.50;;
11699;SDS011;5906;51.660;6.674;2022-09-16T17:13:36;2.43;;;1.70;;
11699;SDS011;5906;51.660;6.674;2022-09-16T17:16:04;3.00;;;1.70;;
11699;SDS011;5906;51.660;6.674;2022-09-16T17:18:32;5.20;;;1.77;;
11699;SDS011;5906;51.660;6.674;2022-09-16T17:21:04;6.33;;;2.27;;
11699;SDS011;5906;51.660;6.674;2022-09-16T17:23:34;4.43;;;2.27;;
11699;SDS011;5906;51.660;6.674;2022-09-16T17:26:01;4.47;;;1.63;;
11699;SDS011;5906;51.660;6.674;2022-09-16T17:28:29;2.33;;;1.60;;
11699;SDS011;5906;51.660;6.674;2022-09-16T17:30:56;6.63;;;1.73;;
11699;SDS011;5906;51.660;6.674;2022-09-16T17:33:22;2.43;;;1.57;;
11699;SDS011;5906;51.660;6.674;2022-09-16T17:35:59;5.53;;;2.17;;
11699;SDS011;5906;51.660;6.674;2022-09-16T17:38:31;3.00;;;1.50;;
11699;SDS011;5906;51.660;6.674;2022-09-16T17:41:02;2.23;;;1.80;;
11699;SDS011;5906;51.660;6.674;2022-09-16T17:43:30;6.30;;;1.90;;
11699;SDS011;5906;51.660;6.674;2022-09-16T17:45:58;3.60;;;2.00;;
11699;SDS011;5906;51.660;6.674;2022-09-16T17:48:27;7.90;;;2.10;;
11699;SDS011;5906;51.660;6.674;2022-09-16T17:50:54;4.07;;;1.93;;
11699;SDS011;5906;51.660;6.674;2022-09-16T17:53:21;5.43;;;1.90;;
11699;SDS011;5906;51.660;6.674;2022-09-16T17:55:48;4.10;;;1.80;;
11699;SDS011;5906;51.660;6.674;2022-09-16T17:58:16;3.73;;;2.00;;
11699;SDS011;5906;51.660;6.674;2022-09-16T18:00:43;8.77;;;2.07;;
11699;SDS011;5906;51.660;6.674;2022-09-16T18:03:10;3.20;;;1.77;;
11699;SDS011;5906;51.660;6.674;2022-09-16T18:05:37;3.10;;;1.70;;
11699;SDS011;5906;51.660;6.674;2022-09-16T18:08:04;3.17;;;1.80;;
11699;SDS011;5906;51.660;6.674;2022-09-16T18:10:31;3.63;;;2.17;;
11699;SDS011;5906;51.660;6.674;2022-09-16T18:12:58;4.90;;;2.20;;
11699;SDS011;5906;51.660;6.674;2022-09-16T18:15:25;6.77;;;1.90;;
11699;SDS011;5906;51.660;6.674;2022-09-16T18:17:53;11.97;;;2.33;;
11699;SDS011;5906;51.660;6.674;2022-09-16T18:20:20;5.87;;;2.23;;
11699;SDS011;5906;51.660;6.674;2022-09-16T18:22:47;3.53;;;1.70;;
11699;SDS011;5906;51.660;6.674;2022-09-16T18:25:14;9.27;;;2.60;;
11699;SDS011;5906;51.660;6.674;2022-09-16T18:27:41;3.73;;;1.80;;
11699;SDS011;5906;51.660;6.674;2022-09-16T18:30:09;10.10;;;2.20;;
11699;SDS011;5906;51.660;6.674;2022-09-16T18:32:37;3.80;;;1.60;;
11699;SDS011;5906;51.660;6.674;2022-09-16T18:35:03;11.50;;;3.03;;
11699;SDS011;5906;51.660;6.674;2022-09-16T18:37:30;9.83;;;2.40;;
11699;SDS011;5906;51.660;6.674;2022-09-16T18:39:57;5.73;;;2.00;;